Time;durP1;ratioP1;P1;durP2;ratioP2;P2;SDS_P1;SDS_P2;PMS_P1;PMS_P2;Temp;Humidity;BMP_temperature;BMP_pressure;BME280_temperature;BME280_humidity;BME280_pressure;Samples;Min_cycle;Max_cycle;Signal;HPM_P1;HPM_P2
2023/07/12 00:00:31;;;;;;;3.83;1.98;;;22.40;99.90;;;;;;5071549;28;20025;-54
2023/07/12 00:02:57;;;;;;;8.45;1.70;;;22.30;99.90;;;;;;5071615;28;20063;-56
2023/07/12 00:05:28;;;;;;;4.78;1.50;;;22.30;99.90;;;;;;5071620;28;20025;-58
2023/07/12 00:07:54;;;;;;;10.43;1.83;;;22.20;99.90;;;;;;5071071;28;20036;-58
2023/07/12 00:10:25;;;;;;;15.15;1.60;;;22.20;99.90;;;;;;5071443;28;20406;-58
2023/07/12 00:12:53;;;;;;;9.27;1.55;;;22.20;99.90;;;;;;5071562;28;20032;-59
2023/07/12 00:15:24;;;;;;;8.68;1.30;;;22.20;99.90;;;;;;5071546;28;20032;-56
2023/07/12 00:17:51;;;;;;;5.65;1.52;;;22.10;99.90;;;;;;5071343;28;20035;-58
2023/07/12 00:20:30;;;;;;;6.60;1.25;;;22.00;99.90;;;;;;5071359;28;20035;-52
2023/07/12 00:22:56;;;;;;;5.20;1.70;;;22.00;99.90;;;;;;5071420;28;20024;-55
2023/07/12 00:25:24;;;;;;;7.32;1.67;;;21.90;99.90;;;;;;5071390;28;20494;-53
2023/07/12 00:27:50;;;;;;;2.65;1.25;;;21.90;99.90;;;;;;5071156;28;20021;-55
2023/07/12 00:30:27;;;;;;;6.15;1.58;;;21.90;99.90;;;;;;5071241;28;20026;-58
2023/07/12 00:32:54;;;;;;;6.30;1.40;;;21.90;99.90;;;;;;5071294;28;20136;-53
2023/07/12 00:35:25;;;;;;;6.72;1.50;;;21.90;99.90;;;;;;5071211;28;20530;-51
2023/07/12 00:37:53;;;;;;;6.30;1.30;;;21.90;99.90;;;;;;5071253;28;20028;-57
2023/07/12 00:40:37;;;;;;;3.78;1.30;;;21.90;99.90;;;;;;5071159;28;20439;-53
2023/07/12 00:43:15;;;;;;;3.33;1.30;;;22.00;99.90;;;;;;5071087;28;20036;-56
2023/07/12 00:45:43;;;;;;;10.40;1.65;;;21.90;99.90;;;;;;5071088;28;20028;-55
2023/07/12 00:48:13;;;;;;;2.70;1.30;;;21.90;99.90;;;;;;5070985;28;20439;-55
2023/07/12 00:50:39;;;;;;;4.20;1.83;;;21.90;99.90;;;;;;5071168;28;20583;-56
2023/07/12 00:53:08;;;;;;;6.35;1.85;;;21.80;99.90;;;;;;5071117;28;20025;-60
2023/07/12 00:56:03;;;;;;;4.68;1.55;;;21.80;99.90;;;;;;5071019;28;20052;-56
2023/07/12 00:58:39;;;;;;;10.80;1.58;;;21.80;99.90;;;;;;5070932;28;20040;-55
2023/07/12 01:01:06;;;;;;;3.55;1.80;;;21.60;99.90;;;;;;5069741;28;20096;-55
2023/07/12 01:03:36;;;;;;;5.63;1.60;;;21.50;99.90;;;;;;5070852;28;20104;-59
2023/07/12 01:06:03;;;;;;;5.07;1.48;;;21.60;99.90;;;;;;5070779;28;20024;-58
2023/07/12 01:08:30;;;;;;;2.53;1.50;;;21.60;99.90;;;;;;5070746;28;20051;-57
2023/07/12 01:10:56;;;;;;;4.00;1.58;;;21.60;99.90;;;;;;5070958;28;20051;-60
2023/07/12 01:13:23;;;;;;;6.05;1.65;;;21.50;99.90;;;;;;5071014;28;20048;-58
2023/07/12 01:15:49;;;;;;;6.53;1.63;;;21.50;99.90;;;;;;5070785;28;20024;-59
2023/07/12 01:18:15;;;;;;;3.65;1.35;;;21.40;99.90;;;;;;5070801;28;20029;-58
2023/07/12 01:20:43;;;;;;;3.03;1.17;;;21.30;99.90;;;;;;5074314;28;20024;-55
2023/07/12 01:23:09;;;;;;;4.80;1.42;;;21.30;99.90;;;;;;5074778;28;20035;-60
2023/07/12 01:25:42;;;;;;;9.23;1.80;;;21.30;99.90;;;;;;5074584;28;20103;-57
2023/07/12 01:28:08;;;;;;;3.28;1.40;;;21.20;99.90;;;;;;5074462;28;20119;-57
2023/07/12 01:30:34;;;;;;;6.55;1.52;;;21.10;99.90;;;;;;5074416;28;20093;-58
2023/07/12 01:33:00;;;;;;;5.80;1.73;;;21.10;99.90;;;;;;5074543;28;20024;-59
2023/07/12 01:35:26;;;;;;;2.92;1.60;;;21.10;99.90;;;;;;5074303;28;20044;-60
2023/07/12 01:37:51;;;;;;;2.63;1.73;;;21.00;99.90;;;;;;5074295;28;20108;-55
2023/07/12 01:40:17;;;;;;;2.63;1.52;;;20.90;99.90;;;;;;5074289;28;20097;-51
2023/07/12 01:42:43;;;;;;;3.30;1.77;;;20.80;99.90;;;;;;5074298;28;20069;-55
2023/07/12 01:45:09;;;;;;;3.78;1.73;;;20.90;99.90;;;;;;5074202;28;20070;-53
2023/07/12 01:47:35;;;;;;;5.47;1.48;;;20.80;99.90;;;;;;5074163;28;20103;-52
2023/07/12 01:50:00;;;;;;;9.05;1.20;;;20.90;99.90;;;;;;5073836;28;20016;-58
2023/07/12 01:52:26;;;;;;;5.35;1.55;;;20.90;99.90;;;;;;5072954;28;20025;-58
2023/07/12 01:54:51;;;;;;;4.93;1.60;;;20.90;99.90;;;;;;5073960;28;20017;-57
2023/07/12 01:57:17;;;;;;;5.03;1.80;;;21.00;99.90;;;;;;5074113;28;20120;-60
2023/07/12 01:59:43;;;;;;;2.45;1.17;;;21.00;99.90;;;;;;5073972;28;20078;-61
2023/07/12 02:02:08;;;;;;;4.40;1.63;;;21.10;99.90;;;;;;5074013;28;20028;-57
2023/07/12 02:04:34;;;;;;;2.67;1.20;;;21.10;99.90;;;;;;5073820;28;20090;-60
2023/07/12 02:07:00;;;;;;;5.55;1.40;;;21.00;99.90;;;;;;5073798;28;20033;-55
2023/07/12 02:09:32;;;;;;;12.50;2.88;;;20.80;99.90;;;;;;5073761;28;20025;-57
2023/07/12 02:11:57;;;;;;;10.00;2.70;;;20.70;99.90;;;;;;5073737;28;20025;-58
2023/07/12 02:14:23;;;;;;;13.48;3.05;;;20.50;99.90;;;;;;5073776;28;20376;-60
2023/07/12 02:16:48;;;;;;;9.40;3.38;;;20.30;99.90;;;;;;5073637;28;20024;-59
2023/07/12 02:19:14;;;;;;;8.65;2.75;;;20.20;99.90;;;;;;5073405;28;20506;-63
2023/07/12 02:21:39;;;;;;;6.30;2.50;;;20.20;99.90;;;;;;5073793;28;20024;-60
2023/07/12 02:24:05;;;;;;;5.78;2.60;;;20.00;99.90;;;;;;5073489;28;20040;-60
2023/07/12 02:26:31;;;;;;;7.95;2.25;;;19.90;99.90;;;;;;5073654;28;20029;-60
2023/07/12 02:28:56;;;;;;;7.05;2.90;;;19.90;99.90;;;;;;5073311;28;20375;-61
2023/07/12 02:31:24;;;;;;;6.75;2.50;;;19.90;99.90;;;;;;5073446;28;20055;-60
2023/07/12 02:33:50;;;;;;;8.98;2.70;;;19.80;99.90;;;;;;5073408;28;20408;-60
2023/07/12 02:36:16;;;;;;;9.05;2.70;;;19.70;99.90;;;;;;5073366;28;20036;-59
2023/07/12 02:38:42;;;;;;;6.45;2.70;;;19.50;99.90;;;;;;5073187;28;20471;-61
2023/07/12 02:41:08;;;;;;;5.78;2.50;;;19.50;99.90;;;;;;5073066;28;20032;-62
2023/07/12 02:43:34;;;;;;;3.88;2.63;;;19.40;99.90;;;;;;5073220;28;20100;-63
2023/07/12 02:46:00;;;;;;;3.88;2.58;;;19.40;99.90;;;;;;5072876;28;20024;-62
2023/07/12 02:48:25;;;;;;;4.75;3.42;;;19.30;99.90;;;;;;5072834;28;20447;-63
2023/07/12 02:50:51;;;;;;;8.23;4.07;;;19.30;99.90;;;;;;5073010;28;20048;-61
2023/07/12 02:53:18;;;;;;;13.88;4.25;;;19.30;99.90;;;;;;5073003;28;20047;-61
2023/07/12 02:55:48;;;;;;;14.38;4.22;;;19.20;99.90;;;;;;5072924;28;20043;-62
2023/07/12 02:58:13;;;;;;;7.68;3.75;;;19.30;99.90;;;;;;5072735;28;20540;-60
2023/07/12 03:00:39;;;;;;;9.18;4.13;;;19.20;99.90;;;;;;5072898;28;20107;-62
2023/07/12 03:03:05;;;;;;;9.18;4.43;;;19.20;99.90;;;;;;5072634;28;20020;-62
2023/07/12 03:05:33;;;;;;;11.32;3.83;;;19.20;99.90;;;;;;5072703;28;20043;-61
2023/07/12 03:07:59;;;;;;;7.82;3.53;;;19.20;99.90;;;;;;5072594;28;20020;-58
2023/07/12 03:10:24;;;;;;;12.32;3.65;;;19.20;99.90;;;;;;5072610;28;20031;-60
2023/07/12 03:12:50;;;;;;;5.05;2.40;;;19.10;99.90;;;;;;5072687;28;20454;-55
2023/07/12 03:15:15;;;;;;;5.50;2.13;;;19.00;99.90;;;;;;5072515;28;20530;-59
2023/07/12 03:17:41;;;;;;;5.00;1.95;;;18.90;99.90;;;;;;5072366;28;20486;-59
2023/07/12 03:20:07;;;;;;;6.55;1.50;;;18.90;99.90;;;;;;5072283;28;20036;-61
2023/07/12 03:22:32;;;;;;;3.55;1.40;;;18.80;99.90;;;;;;5072441;28;20376;-60
2023/07/12 03:24:58;;;;;;;4.40;1.73;;;18.90;99.90;;;;;;5072208;28;20122;-61
2023/07/12 03:27:24;;;;;;;4.72;1.60;;;18.80;99.90;;;;;;5072361;28;20500;-61
2023/07/12 03:29:49;;;;;;;6.45;2.00;;;18.80;99.90;;;;;;5072155;28;20430;-60
2023/07/12 03:32:15;;;;;;;7.20;1.50;;;18.80;99.90;;;;;;5072233;28;20033;-56
2023/07/12 03:34:40;;;;;;;5.05;1.95;;;18.80;99.90;;;;;;5072242;28;20445;-59
2023/07/12 03:37:06;;;;;;;5.88;1.70;;;18.80;99.90;;;;;;5072022;28;20692;-61
2023/07/12 03:39:31;;;;;;;3.65;1.40;;;18.70;99.90;;;;;;5071994;28;20032;-61
2023/07/12 03:41:57;;;;;;;8.60;1.83;;;18.70;99.90;;;;;;5071425;28;20487;-61
2023/07/12 03:44:23;;;;;;;10.55;1.70;;;18.60;99.90;;;;;;5072393;28;20040;-61
2023/07/12 03:46:48;;;;;;;9.02;1.45;;;18.60;99.90;;;;;;5071631;28;20025;-60
2023/07/12 03:49:14;;;;;;;5.57;1.50;;;18.60;99.90;;;;;;5071860;28;20449;-61
2023/07/12 03:51:39;;;;;;;2.47;1.27;;;18.60;99.90;;;;;;5071922;28;20028;-61
2023/07/12 03:54:05;;;;;;;3.78;1.48;;;18.50;99.90;;;;;;5071821;28;20024;-58
2023/07/12 03:56:30;;;;;;;4.15;1.42;;;18.40;99.90;;;;;;5071936;28;20035;-60
2023/07/12 03:58:56;;;;;;;4.45;1.42;;;18.40;99.90;;;;;;5071582;28;20383;-61
2023/07/12 04:01:21;;;;;;;5.25;1.33;;;18.20;99.90;;;;;;5071740;28;20056;-58
2023/07/12 04:03:47;;;;;;;5.20;1.23;;;17.90;99.90;;;;;;5071821;28;20025;-59
2023/07/12 04:06:12;;;;;;;2.92;1.42;;;17.90;99.90;;;;;;5071658;28;20024;-60
2023/07/12 04:08:38;;;;;;;3.92;1.42;;;17.90;99.90;;;;;;5071549;28;20089;-60
2023/07/12 04:11:05;;;;;;;4.57;0.90;;;17.70;99.90;;;;;;5071588;28;20103;-60
2023/07/12 04:13:32;;;;;;;2.55;1.30;;;17.90;99.90;;;;;;5071815;28;20013;-57
2023/07/12 04:16:00;;;;;;;2.35;1.02;;;17.90;99.90;;;;;;5071621;28;20380;-61
2023/07/12 04:18:26;;;;;;;2.10;1.05;;;17.80;99.90;;;;;;5071470;28;20435;-61
2023/07/12 04:20:58;;;;;;;2.92;1.13;;;17.90;99.90;;;;;;5071758;28;20025;-58
2023/07/12 04:23:25;;;;;;;2.85;1.05;;;17.90;99.90;;;;;;5071857;28;20034;-61
2023/07/12 04:25:58;;;;;;;3.15;1.20;;;18.00;99.90;;;;;;5071454;28;20049;-57
2023/07/12 04:28:24;;;;;;;1.97;1.20;;;17.90;99.90;;;;;;5071390;28;20413;-52
2023/07/12 04:30:50;;;;;;;4.18;1.38;;;17.80;99.90;;;;;;5071500;28;20020;-58
2023/07/12 04:33:15;;;;;;;7.40;1.45;;;17.70;99.90;;;;;;5071481;28;20028;-59
2023/07/12 04:35:41;;;;;;;2.17;1.58;;;17.70;99.90;;;;;;5071323;28;20021;-58
2023/07/12 04:38:06;;;;;;;1.75;0.98;;;17.60;99.90;;;;;;5071235;28;20043;-56
2023/07/12 04:40:32;;;;;;;2.00;1.30;;;17.60;99.90;;;;;;5071165;28;20486;-60
2023/07/12 04:42:58;;;;;;;3.80;1.42;;;17.60;99.90;;;;;;5071127;28;20037;-60
2023/07/12 04:45:23;;;;;;;2.28;1.25;;;17.60;99.90;;;;;;5071159;28;20025;-59
2023/07/12 04:47:49;;;;;;;2.97;1.48;;;17.60;99.90;;;;;;5070951;28;20028;-61
2023/07/12 04:50:14;;;;;;;2.67;1.30;;;17.70;99.90;;;;;;5071113;28;20059;-58
2023/07/12 04:52:40;;;;;;;4.38;1.33;;;17.60;99.90;;;;;;5071267;28;20100;-61
2023/07/12 04:55:23;;;;;;;3.60;1.52;;;17.70;99.90;;;;;;5072394;28;20012;-58
2023/07/12 04:57:48;;;;;;;2.80;1.05;;;17.60;99.90;;;;;;5075344;28;20540;-58
2023/07/12 05:00:15;;;;;;;3.25;1.50;;;17.70;99.90;;;;;;5075321;28;20044;-59
2023/07/12 05:02:41;;;;;;;2.22;1.13;;;17.80;99.90;;;;;;5075205;28;20029;-56
2023/07/12 05:05:06;;;;;;;3.85;1.55;;;17.90;99.90;;;;;;5074973;28;20092;-57
2023/07/12 05:07:32;;;;;;;2.53;1.13;;;17.90;99.90;;;;;;5075004;28;20029;-60
2023/07/12 05:09:57;;;;;;;4.28;1.10;;;18.00;99.90;;;;;;5074679;28;20020;-60
2023/07/12 05:12:23;;;;;;;5.20;1.27;;;17.90;99.90;;;;;;5075171;28;20032;-55
2023/07/12 05:14:49;;;;;;;5.65;1.30;;;17.90;99.90;;;;;;5074740;28;20021;-59
2023/07/12 05:17:14;;;;;;;4.68;1.65;;;18.00;99.90;;;;;;5074846;28;20508;-57
2023/07/12 05:19:40;;;;;;;1.63;1.38;;;18.00;99.90;;;;;;5074725;28;20028;-56
2023/07/12 05:22:05;;;;;;;5.38;1.10;;;18.10;99.90;;;;;;5074740;28;20439;-56
2023/07/12 05:24:31;;;;;;;4.70;1.52;;;18.00;99.90;;;;;;5074885;28;20550;-55
2023/07/12 05:26:58;;;;;;;2.08;1.02;;;18.00;99.90;;;;;;5074400;28;20056;-58
2023/07/12 05:29:24;;;;;;;4.78;1.33;;;18.00;99.90;;;;;;5074596;28;20398;-55
2023/07/12 05:31:49;;;;;;;3.55;1.10;;;18.10;99.90;;;;;;5074427;28;20031;-58
2023/07/12 05:34:15;;;;;;;2.55;1.05;;;18.20;99.90;;;;;;5074563;28;20024;-57
2023/07/12 05:36:40;;;;;;;3.25;1.30;;;18.10;99.90;;;;;;5074469;28;20035;-54
2023/07/12 05:39:06;;;;;;;2.75;1.00;;;18.10;99.90;;;;;;5074159;28;20025;-58
2023/07/12 05:41:31;;;;;;;9.73;1.25;;;18.10;99.90;;;;;;5074322;28;20068;-59
2023/07/12 05:43:57;;;;;;;3.60;1.00;;;18.10;99.90;;;;;;5074204;28;20103;-56
2023/07/12 05:46:23;;;;;;;4.78;1.20;;;18.10;99.90;;;;;;5074305;28;20025;-59
2023/07/12 05:48:49;;;;;;;2.92;1.30;;;18.20;99.90;;;;;;5074023;28;20506;-58
2023/07/12 05:51:14;;;;;;;3.40;1.10;;;18.20;99.90;;;;;;5074230;28;20037;-59
2023/07/12 05:53:40;;;;;;;4.15;1.02;;;18.30;99.90;;;;;;5074203;28;20073;-57
2023/07/12 05:56:06;;;;;;;3.08;0.98;;;18.30;99.90;;;;;;5074215;28;20053;-57
2023/07/12 05:58:31;;;;;;;3.33;1.00;;;18.30;99.90;;;;;;5074270;28;20023;-56
2023/07/12 06:00:58;;;;;;;4.03;1.55;;;18.30;99.90;;;;;;5073955;28;20029;-57
2023/07/12 06:03:25;;;;;;;8.10;1.60;;;18.40;99.90;;;;;;5074024;28;20031;-53
2023/07/12 06:05:52;;;;;;;3.65;1.10;;;18.40;99.90;;;;;;5073196;28;20101;-60
2023/07/12 06:08:18;;;;;;;1.95;0.93;;;18.40;99.90;;;;;;5073481;28;20107;-56
2023/07/12 06:10:44;;;;;;;4.43;1.02;;;18.40;99.90;;;;;;5073799;28;20447;-60
2023/07/12 06:13:10;;;;;;;2.20;1.08;;;18.40;99.90;;;;;;5073655;28;20044;-60
2023/07/12 06:15:36;;;;;;;4.20;0.80;;;18.50;99.90;;;;;;5073605;28;20016;-57
2023/07/12 06:18:02;;;;;;;3.00;1.00;;;18.50;99.90;;;;;;5073416;28;20025;-59
2023/07/12 06:20:27;;;;;;;2.83;1.00;;;18.60;99.90;;;;;;5073545;28;20078;-53
2023/07/12 06:22:53;;;;;;;3.50;1.10;;;18.70;99.90;;;;;;5073494;28;20111;-53
2023/07/12 06:25:19;;;;;;;5.45;1.33;;;18.70;99.90;;;;;;5073449;28;20095;-57
2023/07/12 06:27:45;;;;;;;2.88;1.30;;;18.70;99.90;;;;;;5073284;28;20044;-59
2023/07/12 06:30:11;;;;;;;2.70;1.02;;;18.80;99.90;;;;;;5073062;28;20104;-59
2023/07/12 06:32:37;;;;;;;3.72;1.10;;;18.90;99.90;;;;;;5073176;28;20029;-60
2023/07/12 06:35:03;;;;;;;4.30;1.85;;;19.00;99.90;;;;;;5073008;28;20479;-56
2023/07/12 06:37:29;;;;;;;3.85;1.38;;;19.10;99.90;;;;;;5073163;28;20091;-57
2023/07/12 06:39:54;;;;;;;4.05;1.23;;;19.10;99.90;;;;;;5072890;28;20032;-54
2023/07/12 06:42:20;;;;;;;3.45;1.17;;;19.00;99.90;;;;;;5073008;28;20041;-58
2023/07/12 06:44:45;;;;;;;7.18;1.20;;;18.90;99.90;;;;;;5073046;28;20494;-59
2023/07/12 06:47:11;;;;;;;4.07;1.40;;;19.00;99.90;;;;;;5073061;28;20040;-56
2023/07/12 06:49:36;;;;;;;2.08;1.23;;;19.10;99.90;;;;;;5072996;28;20021;-55
2023/07/12 06:52:02;;;;;;;2.83;1.20;;;19.20;99.90;;;;;;5072932;28;20028;-58
2023/07/12 06:54:28;;;;;;;3.75;1.10;;;19.30;99.90;;;;;;5072760;28;20048;-60
2023/07/12 06:56:54;;;;;;;2.83;1.30;;;19.40;99.90;;;;;;5072711;28;20113;-58
2023/07/12 06:59:19;;;;;;;9.20;1.75;;;19.40;99.90;;;;;;5072659;28;20064;-61
2023/07/12 07:01:47;;;;;;;4.25;1.65;;;19.50;99.90;;;;;;5072827;28;20043;-57
2023/07/12 07:04:13;;;;;;;4.70;1.20;;;19.60;99.90;;;;;;5072668;28;20028;-62
2023/07/12 07:06:39;;;;;;;5.70;1.33;;;19.60;99.90;;;;;;5072548;28;20036;-61
2023/07/12 07:09:05;;;;;;;4.75;1.27;;;19.70;99.90;;;;;;5072505;28;20092;-60
2023/07/12 07:11:30;;;;;;;4.93;1.45;;;19.50;99.90;;;;;;5072578;28;20474;-59
2023/07/12 07:13:56;;;;;;;2.67;1.05;;;19.50;99.90;;;;;;5072421;28;20056;-59
2023/07/12 07:16:22;;;;;;;6.22;1.23;;;19.60;99.90;;;;;;5071868;28;20025;-62
2023/07/12 07:18:49;;;;;;;3.17;0.90;;;19.60;99.90;;;;;;5071987;28;20031;-62
2023/07/12 07:21:15;;;;;;;5.05;1.00;;;19.70;99.90;;;;;;5072372;28;20501;-56
2023/07/12 07:23:40;;;;;;;10.07;2.00;;;19.50;99.90;;;;;;5072390;28;20036;-58
2023/07/12 07:26:09;;;;;;;5.30;1.20;;;19.40;99.90;;;;;;5070869;28;20447;-58
2023/07/12 07:28:35;;;;;;;7.78;1.30;;;19.40;99.90;;;;;;5071884;28;20028;-52
2023/07/12 07:31:00;;;;;;;3.00;1.52;;;19.60;99.90;;;;;;5071742;28;20024;-61
2023/07/12 07:33:27;;;;;;;5.18;1.33;;;19.60;99.90;;;;;;5071815;28;20537;-61
2023/07/12 07:35:54;;;;;;;7.22;1.20;;;19.60;99.90;;;;;;5071653;28;20505;-58
2023/07/12 07:38:25;;;;;;;4.82;1.10;;;19.50;99.90;;;;;;5071580;28;20028;-61
2023/07/12 07:40:52;;;;;;;2.13;1.25;;;19.50;99.90;;;;;;5071709;28;20047;-59
2023/07/12 07:43:17;;;;;;;9.40;0.90;;;19.70;99.90;;;;;;5071846;28;20028;-60
2023/07/12 07:45:43;;;;;;;3.47;1.20;;;19.80;99.90;;;;;;5071866;28;20028;-60
2023/07/12 07:48:10;;;;;;;2.33;1.02;;;19.70;99.90;;;;;;5071792;28;20032;-58
2023/07/12 07:50:36;;;;;;;3.47;1.45;;;19.70;99.90;;;;;;5071785;28;20108;-56
2023/07/12 07:53:02;;;;;;;7.90;1.63;;;19.60;99.90;;;;;;5071815;28;20057;-58
2023/07/12 07:55:27;;;;;;;3.58;1.20;;;19.60;99.90;;;;;;5071730;28;20440;-60
2023/07/12 07:57:53;;;;;;;3.65;1.10;;;19.60;99.90;;;;;;5071759;28;20048;-53
2023/07/12 08:00:19;;;;;;;12.32;4.43;;;19.70;99.90;;;;;;5071553;28;20082;-56
2023/07/12 08:02:45;;;;;;;7.60;1.83;;;19.70;99.90;;;;;;5068953;28;20051;-59
2023/07/12 08:05:11;;;;;;;6.78;2.88;;;19.80;99.90;;;;;;5063021;28;20031;-58
2023/07/12 08:07:46;;;;;;;3.33;1.13;;;19.90;99.90;;;;;;5071091;28;20479;-58
2023/07/12 08:10:15;;;;;;;6.55;1.30;;;19.90;99.90;;;;;;5062460;28;20041;-56
2023/07/12 08:12:41;;;;;;;1.58;0.73;;;20.10;99.90;;;;;;5048910;28;20056;-59
2023/07/12 08:15:07;;;;;;;3.70;0.95;;;20.10;99.90;;;;;;5054717;28;20029;-56
2023/07/12 08:17:33;;;;;;;6.50;1.30;;;20.30;99.90;;;;;;5056185;28;20407;-60
2023/07/12 08:19:58;;;;;;;3.17;0.98;;;20.30;99.90;;;;;;5060893;28;20405;-59
2023/07/12 08:22:24;;;;;;;2.60;1.10;;;20.40;99.90;;;;;;5064215;28;20479;-60
2023/07/12 08:24:49;;;;;;;4.32;0.85;;;20.50;99.90;;;;;;5068264;28;20037;-60
2023/07/12 08:27:18;;;;;;;3.72;1.45;;;20.60;99.90;;;;;;5071191;28;20033;-55
2023/07/12 08:29:44;;;;;;;2.15;0.77;;;20.70;99.90;;;;;;5060626;28;20069;-59
2023/07/12 08:32:10;;;;;;;2.35;1.17;;;21.00;99.90;;;;;;5060922;28;20095;-60
2023/07/12 08:34:36;;;;;;;5.60;0.70;;;21.10;99.90;;;;;;5071263;28;20013;-60
2023/07/12 08:37:02;;;;;;;3.63;1.00;;;21.10;99.90;;;;;;5059916;28;20025;-59
2023/07/12 08:39:28;;;;;;;4.10;1.05;;;21.00;99.90;;;;;;5070805;28;20028;-59
2023/07/12 08:41:54;;;;;;;1.10;0.93;;;21.00;99.90;;;;;;5058242;28;20048;-60
2023/07/12 08:44:20;;;;;;;5.90;1.88;;;20.90;99.90;;;;;;5054739;28;20025;-58
2023/07/12 08:46:56;;;;;;;4.88;1.02;;;21.00;99.90;;;;;;5067497;28;20475;-57
2023/07/12 08:49:23;;;;;;;5.25;1.20;;;20.90;99.90;;;;;;5049949;28;20035;-55
2023/07/12 08:51:51;;;;;;;2.92;0.98;;;20.80;99.90;;;;;;5067683;28;20027;-61
2023/07/12 08:54:33;;;;;;;6.03;1.30;;;20.70;99.90;;;;;;5057883;28;20029;-60
2023/07/12 08:57:15;;;;;;;4.72;1.48;;;20.60;99.90;;;;;;5066658;28;20555;-60
2023/07/12 08:59:43;;;;;;;5.72;1.40;;;20.70;99.90;;;;;;5067016;28;20024;-57
2023/07/12 09:02:22;;;;;;;8.82;1.42;;;20.80;99.90;;;;;;5061604;28;20667;-58
2023/07/12 09:04:47;;;;;;;4.55;1.13;;;20.90;99.90;;;;;;5070642;28;20020;-57
2023/07/12 09:07:21;;;;;;;5.53;1.52;;;21.00;99.90;;;;;;5070577;28;20509;-60
2023/07/12 09:09:49;;;;;;;2.85;1.00;;;21.00;99.90;;;;;;5070694;28;20020;-57
2023/07/12 09:12:29;;;;;;;3.30;1.00;;;21.20;99.90;;;;;;5071119;28;20025;-58
2023/07/12 09:15:00;;;;;;;5.65;1.42;;;21.30;99.90;;;;;;5070823;28;20099;-57
2023/07/12 09:17:28;;;;;;;5.28;1.30;;;21.60;99.90;;;;;;5070893;28;20029;-55
2023/07/12 09:19:54;;;;;;;8.30;1.60;;;21.70;99.90;;;;;;5070647;28;20497;-59
2023/07/12 09:22:20;;;;;;;4.72;1.05;;;21.70;99.90;;;;;;5070832;28;20128;-54
2023/07/12 09:24:51;;;;;;;7.80;1.50;;;21.50;99.90;;;;;;5070750;28;20035;-59
2023/07/12 09:27:22;;;;;;;9.85;1.48;;;21.40;99.90;;;;;;5070952;28;20025;-61
2023/07/12 09:29:48;;;;;;;8.45;1.40;;;21.50;99.90;;;;;;5070600;28;20017;-60
2023/07/12 09:32:21;;;;;;;3.63;1.15;;;21.50;99.90;;;;;;5070688;28;20090;-61
2023/07/12 09:34:48;;;;;;;8.77;1.33;;;21.40;99.90;;;;;;5070737;28;20387;-61
2023/07/12 09:37:18;;;;;;;3.80;1.30;;;21.40;99.90;;;;;;5070654;28;20032;-60
2023/07/12 09:40:14;;;;;;;3.25;1.20;;;21.60;99.90;;;;;;5070812;28;20537;-58
2023/07/12 09:42:40;;;;;;;3.50;0.80;;;21.80;99.90;;;;;;5074094;28;20119;-61
2023/07/12 09:45:11;;;;;;;5.00;1.95;;;22.00;99.90;;;;;;5073902;28;20115;-61
2023/07/12 09:47:48;;;;;;;3.10;0.85;;;22.10;99.90;;;;;;5074040;28;20028;-60
2023/07/12 09:50:57;;;;;;;7.38;1.00;;;22.30;99.90;;;;;;5074065;28;20552;-58
2023/07/12 09:53:42;;;;;;;4.90;0.90;;;22.40;99.90;;;;;;5073988;28;20417;-54
2023/07/12 09:56:21;;;;;;;2.42;0.82;;;22.30;99.90;;;;;;5073934;28;20013;-58
2023/07/12 09:59:10;;;;;;;10.48;1.20;;;22.00;99.90;;;;;;5073739;28;20491;-53
2023/07/12 10:01:54;;;;;;;5.95;1.63;;;22.00;99.90;;;;;;5073988;28;20029;-61
2023/07/12 10:04:51;;;;;;;8.10;1.25;;;22.20;99.90;;;;;;5073924;28;20020;-59
2023/07/12 10:07:29;;;;;;;3.13;1.00;;;22.40;99.90;;;;;;5073396;28;20103;-59
2023/07/12 10:09:55;;;;;;;7.18;1.90;;;22.30;99.90;;;;;;5073533;28;20036;-60
2023/07/12 10:12:36;;;;;;;3.83;0.98;;;22.50;99.90;;;;;;5073894;28;20012;-59
2023/07/12 10:15:02;;;;;;;11.95;1.20;;;22.60;99.90;;;;;;5073644;28;20016;-58
2023/07/12 10:17:32;;;;;;;4.82;1.02;;;22.50;99.90;;;;;;5074001;28;20036;-60
2023/07/12 10:19:58;;;;;;;5.18;1.55;;;22.70;99.90;;;;;;5074031;28;20032;-60
2023/07/12 10:22:35;;;;;;;13.55;1.35;;;22.80;99.90;;;;;;5073620;28;20126;-61
2023/07/12 10:25:04;;;;;;;3.38;1.13;;;23.20;99.90;;;;;;5073455;28;20044;-61
2023/07/12 10:27:35;;;;;;;6.47;1.00;;;23.00;99.90;;;;;;5073581;28;20397;-59
2023/07/12 10:30:17;;;;;;;11.45;1.20;;;23.30;99.90;;;;;;5073420;28;20028;-60
2023/07/12 10:32:51;;;;;;;5.07;1.08;;;23.30;99.90;;;;;;5073600;28;20066;-60
2023/07/12 10:35:26;;;;;;;7.47;1.33;;;23.50;99.90;;;;;;5073409;28;20030;-59
2023/07/12 10:38:17;;;;;;;6.95;1.77;;;23.80;99.90;;;;;;5073103;28;20402;-60
2023/07/12 10:41:01;;;;;;;4.60;1.00;;;24.20;99.90;;;;;;5073289;28;20029;-61
2023/07/12 10:43:44;;;;;;;6.25;1.27;;;23.90;99.90;;;;;;5073334;28;20028;-59
2023/07/12 10:46:30;;;;;;;7.82;1.35;;;23.60;99.90;;;;;;5073141;28;20514;-59
2023/07/12 10:48:57;;;;;;;4.45;1.15;;;23.70;99.90;;;;;;5072861;28;20391;-60
2023/07/12 10:51:37;;;;;;;15.00;1.58;;;24.10;99.90;;;;;;5073112;28;20020;-56
2023/07/12 10:54:04;;;;;;;7.07;1.40;;;24.10;99.90;;;;;;5073005;28;20021;-59
2023/07/12 10:56:35;;;;;;;5.22;1.10;;;24.00;99.90;;;;;;5073168;28;20028;-54
2023/07/12 10:59:33;;;;;;;6.20;1.02;;;24.20;99.90;;;;;;5072786;28;20136;-58
2023/07/12 11:02:04;;;;;;;2.85;1.05;;;24.10;99.90;;;;;;5072966;28;20032;-58
2023/07/12 11:04:29;;;;;;;4.53;1.05;;;24.00;99.90;;;;;;5072897;28;20035;-61
2023/07/12 11:06:58;;;;;;;8.32;1.15;;;24.10;99.90;;;;;;5072603;28;20021;-60
2023/07/12 11:09:45;;;;;;;5.30;1.10;;;24.00;99.90;;;;;;5072832;28;20052;-54
2023/07/12 11:12:29;;;;;;;4.93;0.98;;;24.40;99.90;;;;;;5071290;28;20037;-59
2023/07/12 11:15:05;;;;;;;6.03;1.20;;;24.60;99.90;;;;;;5072663;28;20623;-51
2023/07/12 11:18:04;;;;;;;5.93;1.38;;;24.50;99.90;;;;;;5071369;28;20037;-56
2023/07/12 11:20:35;;;;;;;4.85;0.88;;;24.40;99.90;;;;;;5072692;28;20031;-55
2023/07/12 11:23:07;;;;;;;8.40;1.38;;;24.30;99.90;;;;;;5072459;28;20035;-56
2023/07/12 11:25:57;;;;;;;4.03;1.00;;;24.70;99.90;;;;;;5072362;28;20032;-57
2023/07/12 11:28:23;;;;;;;10.60;1.40;;;25.10;99.90;;;;;;5072146;28;20028;-55
2023/07/12 11:31:16;;;;;;;8.23;1.33;;;25.30;99.90;;;;;;5072255;28;20391;-58
2023/07/12 11:33:49;;;;;;;4.50;1.15;;;25.10;99.90;;;;;;5072327;28;20021;-59
2023/07/12 11:36:24;;;;;;;3.80;0.95;;;25.10;99.90;;;;;;5072118;28;20024;-60
2023/07/12 11:38:50;;;;;;;4.93;0.90;;;24.80;99.90;;;;;;5071910;28;20077;-57
2023/07/12 11:41:22;;;;;;;4.82;1.23;;;24.40;99.90;;;;;;5072014;28;20099;-58
2023/07/12 11:43:57;;;;;;;9.43;1.20;;;24.30;99.90;;;;;;5072074;28;20028;-58
2023/07/12 11:46:28;;;;;;;2.53;0.85;;;24.40;99.90;;;;;;5071887;28;20055;-56
2023/07/12 11:49:04;;;;;;;6.82;0.90;;;24.20;99.90;;;;;;5071672;28;20556;-58
2023/07/12 11:51:36;;;;;;;5.82;0.98;;;24.10;99.90;;;;;;5071967;28;20025;-60
2023/07/12 11:54:18;;;;;;;7.55;1.10;;;24.30;99.90;;;;;;5071697;28;20024;-58
2023/07/12 11:56:45;;;;;;;9.27;0.93;;;25.00;99.90;;;;;;5071866;28;20055;-57
2023/07/12 11:59:16;;;;;;;3.55;0.80;;;25.50;99.90;;;;;;5071481;28;20120;-58
2023/07/12 12:01:43;;;;;;;8.90;1.00;;;25.30;99.90;;;;;;5071879;28;20052;-60
2023/07/12 12:04:24;;;;;;;2.70;0.60;;;25.00;99.90;;;;;;5071106;28;20059;-60
2023/07/12 12:06:52;;;;;;;5.45;0.75;;;25.00;99.90;;;;;;5071431;28;20512;-59
2023/07/12 12:09:22;;;;;;;7.90;1.00;;;25.60;99.20;;;;;;5071614;28;20115;-61
2023/07/12 12:11:47;;;;;;;4.25;0.98;;;26.10;99.00;;;;;;5071745;28;20023;-60
2023/07/12 12:14:26;;;;;;;3.60;0.77;;;26.00;98.70;;;;;;5071527;28;20021;-60
2023/07/12 12:16:54;;;;;;;3.90;1.02;;;26.20;99.40;;;;;;5071659;28;20044;-53
2023/07/12 12:19:21;;;;;;;3.03;1.00;;;26.40;99.70;;;;;;5071298;28;20035;-59
2023/07/12 12:21:58;;;;;;;5.53;0.90;;;26.40;99.30;;;;;;5071591;28;20134;-61
2023/07/12 12:24:23;;;;;;;4.65;1.05;;;26.00;99.80;;;;;;5071653;28;20028;-60
2023/07/12 12:26:50;;;;;;;8.05;1.55;;;26.10;99.30;;;;;;5071441;28;20039;-61
2023/07/12 12:29:17;;;;;;;3.47;0.70;;;25.80;98.30;;;;;;5071289;28;20025;-61
2023/07/12 12:31:54;;;;;;;6.93;0.90;;;25.90;98.40;;;;;;5071271;28;20032;-61
2023/07/12 12:34:25;;;;;;;3.47;1.23;;;25.60;98.60;;;;;;5071661;28;20052;-58
2023/07/12 12:36:57;;;;;;;2.88;0.90;;;25.50;98.60;;;;;;5071324;28;20024;-58
2023/07/12 12:39:23;;;;;;;4.97;0.90;;;25.30;99.10;;;;;;5071323;28;20021;-56
2023/07/12 12:41:53;;;;;;;8.70;1.05;;;25.10;99.40;;;;;;5071221;28;20502;-57
2023/07/12 12:44:19;;;;;;;8.13;0.77;;;25.30;98.00;;;;;;5071075;28;20378;-55
2023/07/12 12:46:50;;;;;;;7.93;0.95;;;25.80;96.80;;;;;;5071133;28;20027;-58
2023/07/12 12:49:27;;;;;;;4.32;0.90;;;25.80;96.00;;;;;;5071046;28;20029;-56
2023/07/12 12:51:55;;;;;;;2.45;0.85;;;25.80;96.60;;;;;;5071285;28;20423;-56
2023/07/12 12:54:21;;;;;;;4.60;1.00;;;26.20;96.80;;;;;;5071113;28;20024;-53